sensor_id;sensor_type;location;lat;lon;timestamp;temperature;humidity
48206;DHT22;33995;48.202;16.260;2023-04-09T00:02:21;6.70;99.90
48206;DHT22;33995;48.202;16.260;2023-04-09T00:04:48;6.60;99.90
48206;DHT22;33995;48.202;16.260;2023-04-09T00:07:15;6.80;99.90
48206;DHT22;33995;48.202;16.260;2023-04-09T00:09:42;6.80;99.90
48206;DHT22;33995;48.202;16.260;2023-04-09T00:12:09;6.80;99.90
48206;DHT22;33995;48.202;16.260;2023-04-09T00:14:36;6.70;99.90
48206;DHT22;33995;48.202;16.260;2023-04-09T00:17:03;6.80;99.90
48206;DHT22;33995;48.202;16.260;2023-04-09T00:19:30;6.80;99.90
48206;DHT22;33995;48.202;16.260;2023-04-09T00:21:57;6.70;99.90
48206;DHT22;33995;48.202;16.260;2023-04-09T00:24:24;6.80;99.90
48206;DHT22;33995;48.202;16.260;2023-04-09T00:26:51;6.80;99.90
48206;DHT22;33995;48.202;16.260;2023-04-09T00:29:19;6.90;99.90
48206;DHT22;33995;48.202;16.260;2023-04-09T00:31:46;6.90;99.90
48206;DHT22;33995;48.202;16.260;2023-04-09T00:34:13;6.90;99.90
48206;DHT22;33995;48.202;16.260;2023-04-09T00:36:40;6.80;99.90
48206;DHT22;33995;48.202;16.260;2023-04-09T00:39:07;6.60;99.90
48206;DHT22;33995;48.202;16.260;2023-04-09T00:41:34;6.70;99.90
48206;DHT22;33995;48.202;16.260;2023-04-09T00:44:01;6.80;99.90
48206;DHT22;33995;48.202;16.260;2023-04-09T00:46:29;6.70;99.90
48206;DHT22;33995;48.202;16.260;2023-04-09T00:48:57;6.70;99.90
48206;DHT22;33995;48.202;16.260;2023-04-09T00:51:24;6.60;99.90
48206;DHT22;33995;48.202;16.260;2023-04-09T00:53:52;6.60;99.90
48206;DHT22;33995;48.202;16.260;2023-04-09T00:56:21;6.60;99.90
48206;DHT22;33995;48.202;16.260;2023-04-09T00:58:49;6.60;99.90
48206;DHT22;33995;48.202;16.260;2023-04-09T01:01:16;6.50;99.90
48206;DHT22;33995;48.202;16.260;2023-04-09T01:03:44;6.50;99.90
48206;DHT22;33995;48.202;16.260;2023-04-09T01:09:08;6.40;99.90
48206;DHT22;33995;48.202;16.260;2023-04-09T01:11:50;6.50;99.90
48206;DHT22;33995;48.202;16.260;2023-04-09T01:14:39;6.50;99.90
48206;DHT22;33995;48.202;16.260;2023-04-09T01:17:23;6.50;99.90
48206;DHT22;33995;48.202;16.260;2023-04-09T01:20:02;6.50;99.90
48206;DHT22;33995;48.202;16.260;2023-04-09T01:22:58;6.50;99.90
48206;DHT22;33995;48.202;16.260;2023-04-09T01:25:52;6.50;99.90
48206;DHT22;33995;48.202;16.260;2023-04-09T01:28:40;6.40;99.90
48206;DHT22;33995;48.202;16.260;2023-04-09T01:31:12;6.40;99.90
48206;DHT22;33995;48.202;16.260;2023-04-09T01:33:43;6.40;99.90
48206;DHT22;33995;48.202;16.260;2023-04-09T01:36:12;6.40;99.90
48206;DHT22;33995;48.202;16.260;2023-04-09T01:38:41;6.40;99.90
48206;DHT22;33995;48.202;16.260;2023-04-09T01:41:13;6.40;99.90
48206;DHT22;33995;48.202;16.260;2023-04-09T01:43:41;6.50;99.90
48206;DHT22;33995;48.202;16.260;2023-04-09T01:46:10;6.50;99.90
48206;DHT22;33995;48.202;16.260;2023-04-09T01:48:38;6.60;99.90
48206;DHT22;33995;48.202;16.260;2023-04-09T01:51:05;6.60;99.90
48206;DHT22;33995;48.202;16.260;2023-04-09T01:53:32;6.60;99.90
48206;DHT22;33995;48.202;16.260;2023-04-09T01:55:59;6.50;99.90
48206;DHT22;33995;48.202;16.260;2023-04-09T01:58:27;6.60;99.90
48206;DHT22;33995;48.202;16.260;2023-04-09T02:01:12;6.60;99.90
48206;DHT22;33995;48.202;16.260;2023-04-09T02:03:46;6.60;99.90
48206;DHT22;33995;48.202;16.260;2023-04-09T02:06:24;6.60;99.90
48206;DHT22;33995;48.202;16.260;2023-04-09T02:08:54;6.40;99.90
48206;DHT22;33995;48.202;16.260;2023-04-09T02:11:24;6.50;99.90
48206;DHT22;33995;48.202;16.260;2023-04-09T02:13:53;6.40;99.90
48206;DHT22;33995;48.202;16.260;2023-04-09T02:16:22;6.50;99.90
48206;DHT22;33995;48.202;16.260;2023-04-09T02:18:53;6.50;99.90
48206;DHT22;33995;48.202;16.260;2023-04-09T02:21:22;6.50;99.90
48206;DHT22;33995;48.202;16.260;2023-04-09T02:23:49;6.30;99.90
48206;DHT22;33995;48.202;16.260;2023-04-09T02:26:17;6.20;99.90
48206;DHT22;33995;48.202;16.260;2023-04-09T02:28:44;6.20;99.90
48206;DHT22;33995;48.202;16.260;2023-04-09T02:31:11;6.20;99.90
48206;DHT22;33995;48.202;16.260;2023-04-09T02:33:38;6.10;99.90
48206;DHT22;33995;48.202;16.260;2023-04-09T02:36:05;6.20;99.90
48206;DHT22;33995;48.202;16.260;2023-04-09T02:38:33;6.20;99.90
48206;DHT22;33995;48.202;16.260;2023-04-09T02:40:59;6.30;99.90
48206;DHT22;33995;48.202;16.260;2023-04-09T02:43:26;6.20;99.90
48206;DHT22;33995;48.202;16.260;2023-04-09T02:45:53;6.20;99.90
48206;DHT22;33995;48.202;16.260;2023-04-09T02:48:21;6.10;99.90
48206;DHT22;33995;48.202;16.260;2023-04-09T02:50:48;6.20;99.90
48206;DHT22;33995;48.202;16.260;2023-04-09T02:53:15;6.10;99.90
48206;DHT22;33995;48.202;16.260;2023-04-09T02:55:42;6.10;99.90
48206;DHT22;33995;48.202;16.260;2023-04-09T02:58:09;6.10;99.90
48206;DHT22;33995;48.202;16.260;2023-04-09T03:00:36;6.10;99.90
48206;DHT22;33995;48.202;16.260;2023-04-09T03:03:03;6.00;99.90
48206;DHT22;33995;48.202;16.260;2023-04-09T03:05:30;6.10;99.90
48206;DHT22;33995;48.202;16.260;2023-04-09T03:07:57;6.10;99.90
48206;DHT22;33995;48.202;16.260;2023-04-09T03:10:24;6.10;99.90
48206;DHT22;33995;48.202;16.260;2023-04-09T03:12:51;6.20;99.90
48206;DHT22;33995;48.202;16.260;2023-04-09T03:15:18;6.20;99.90
48206;DHT22;33995;48.202;16.260;2023-04-09T03:17:45;5.90;99.90
48206;DHT22;33995;48.202;16.260;2023-04-09T03:20:12;6.00;99.90
48206;DHT22;33995;48.202;16.260;2023-04-09T03:22:39;5.90;99.90
48206;DHT22;33995;48.202;16.260;2023-04-09T03:25:18;6.10;99.90
48206;DHT22;33995;48.202;16.260;2023-04-09T03:27:49;6.10;99.90
48206;DHT22;33995;48.202;16.260;2023-04-09T03:30:23;6.20;99.90
48206;DHT22;33995;48.202;16.260;2023-04-09T03:32:51;6.10;99.90
48206;DHT22;33995;48.202;16.260;2023-04-09T03:35:19;6.00;99.90
48206;DHT22;33995;48.202;16.260;2023-04-09T03:37:47;6.00;99.90
48206;DHT22;33995;48.202;16.260;2023-04-09T03:40:17;5.90;99.90
48206;DHT22;33995;48.202;16.260;2023-04-09T03:42:44;6.00;99.90
48206;DHT22;33995;48.202;16.260;2023-04-09T03:45:13;6.10;99.90
48206;DHT22;33995;48.202;16.260;2023-04-09T03:47:44;6.10;99.90
48206;DHT22;33995;48.202;16.260;2023-04-09T03:50:11;6.10;99.90
48206;DHT22;33995;48.202;16.260;2023-04-09T03:52:45;6.10;99.90
48206;DHT22;33995;48.202;16.260;2023-04-09T03:55:12;6.10;99.90
48206;DHT22;33995;48.202;16.260;2023-04-09T03:57:39;6.10;99.90
48206;DHT22;33995;48.202;16.260;2023-04-09T04:00:11;6.00;99.90
48206;DHT22;33995;48.202;16.260;2023-04-09T04:02:50;6.00;99.90
48206;DHT22;33995;48.202;16.260;2023-04-09T04:05:37;5.90;99.90
48206;DHT22;33995;48.202;16.260;2023-04-09T04:08:08;5.90;99.90
48206;DHT22;33995;48.202;16.260;2023-04-09T04:10:35;5.90;99.90
48206;DHT22;33995;48.202;16.260;2023-04-09T04:13:02;5.80;99.90
48206;DHT22;33995;48.202;16.260;2023-04-09T04:15:44;5.80;99.90
48206;DHT22;33995;48.202;16.260;2023-04-09T04:18:13;5.80;99.90
48206;DHT22;33995;48.202;16.260;2023-04-09T04:20:46;5.90;99.90
48206;DHT22;33995;48.202;16.260;2023-04-09T04:23:13;6.00;99.90
48206;DHT22;33995;48.202;16.260;2023-04-09T04:25:50;6.10;99.90
48206;DHT22;33995;48.202;16.260;2023-04-09T04:28:25;6.10;99.90
48206;DHT22;33995;48.202;16.260;2023-04-09T04:30:52;6.00;99.90
48206;DHT22;33995;48.202;16.260;2023-04-09T04:33:19;6.10;99.90
48206;DHT22;33995;48.202;16.260;2023-04-09T04:35:50;6.00;99.90
48206;DHT22;33995;48.202;16.260;2023-04-09T04:38:44;6.00;99.90
48206;DHT22;33995;48.202;16.260;2023-04-09T04:41:17;6.10;99.90
48206;DHT22;33995;48.202;16.260;2023-04-09T04:43:51;6.10;99.90
48206;DHT22;33995;48.202;16.260;2023-04-09T04:46:24;6.10;99.90
48206;DHT22;33995;48.202;16.260;2023-04-09T04:48:51;6.10;99.90
48206;DHT22;33995;48.202;16.260;2023-04-09T04:51:20;6.10;99.90
48206;DHT22;33995;48.202;16.260;2023-04-09T04:53:59;6.20;99.90
48206;DHT22;33995;48.202;16.260;2023-04-09T04:56:26;6.20;99.90
48206;DHT22;33995;48.202;16.260;2023-04-09T04:59:00;6.10;99.90
48206;DHT22;33995;48.202;16.260;2023-04-09T05:01:34;6.20;99.90
48206;DHT22;33995;48.202;16.260;2023-04-09T05:04:05;6.10;99.90
48206;DHT22;33995;48.202;16.260;2023-04-09T05:06:35;6.20;99.90
48206;DHT22;33995;48.202;16.260;2023-04-09T05:09:06;6.30;99.90
48206;DHT22;33995;48.202;16.260;2023-04-09T05:11:44;6.20;99.90
48206;DHT22;33995;48.202;16.260;2023-04-09T05:14:16;6.10;99.90
48206;DHT22;33995;48.202;16.260;2023-04-09T05:16:44;6.20;99.90
48206;DHT22;33995;48.202;16.260;2023-04-09T05:19:10;6.30;99.90
48206;DHT22;33995;48.202;16.260;2023-04-09T05:21:38;6.30;99.90
48206;DHT22;33995;48.202;16.260;2023-04-09T05:24:05;6.30;99.90
48206;DHT22;33995;48.202;16.260;2023-04-09T05:26:33;6.40;99.90
48206;DHT22;33995;48.202;16.260;2023-04-09T05:29:01;6.50;99.90
48206;DHT22;33995;48.202;16.260;2023-04-09T05:31:28;6.60;99.90
48206;DHT22;33995;48.202;16.260;2023-04-09T05:34:03;6.50;99.90
48206;DHT22;33995;48.202;16.260;2023-04-09T05:36:43;6.50;99.90
48206;DHT22;33995;48.202;16.260;2023-04-09T05:39:10;6.50;99.90
48206;DHT22;33995;48.202;16.260;2023-04-09T05:41:37;6.50;99.90
48206;DHT22;33995;48.202;16.260;2023-04-09T05:44:23;6.60;99.90
48206;DHT22;33995;48.202;16.260;2023-04-09T05:46:54;6.70;99.90
48206;DHT22;33995;48.202;16.260;2023-04-09T05:49:28;6.70;99.90
48206;DHT22;33995;48.202;16.260;2023-04-09T05:51:56;6.70;99.90
48206;DHT22;33995;48.202;16.260;2023-04-09T05:54:26;6.70;99.90
48206;DHT22;33995;48.202;16.260;2023-04-09T05:56:53;6.80;99.90
48206;DHT22;33995;48.202;16.260;2023-04-09T05:59:20;7.00;99.90
48206;DHT22;33995;48.202;16.260;2023-04-09T06:01:48;7.00;99.90
48206;DHT22;33995;48.202;16.260;2023-04-09T06:04:15;6.80;99.90
48206;DHT22;33995;48.202;16.260;2023-04-09T06:06:42;6.90;99.90
48206;DHT22;33995;48.202;16.260;2023-04-09T06:09:09;6.90;99.90
48206;DHT22;33995;48.202;16.260;2023-04-09T06:11:36;6.90;99.90
48206;DHT22;33995;48.202;16.260;2023-04-09T06:14:04;6.90;99.90
48206;DHT22;33995;48.202;16.260;2023-04-09T06:16:32;6.90;99.90
48206;DHT22;33995;48.202;16.260;2023-04-09T06:18:59;6.90;99.90
48206;DHT22;33995;48.202;16.260;2023-04-09T06:21:26;7.10;99.90
48206;DHT22;33995;48.202;16.260;2023-04-09T06:23:53;7.20;99.90
48206;DHT22;33995;48.202;16.260;2023-04-09T06:26:20;7.40;99.90
48206;DHT22;33995;48.202;16.260;2023-04-09T06:28:47;7.30;99.90
48206;DHT22;33995;48.202;16.260;2023-04-09T06:31:14;7.30;99.90
48206;DHT22;33995;48.202;16.260;2023-04-09T06:33:42;7.20;99.90
48206;DHT22;33995;48.202;16.260;2023-04-09T06:36:09;7.30;99.90
48206;DHT22;33995;48.202;16.260;2023-04-09T06:38:36;7.30;99.90
48206;DHT22;33995;48.202;16.260;2023-04-09T06:41:03;7.40;99.90
48206;DHT22;33995;48.202;16.260;2023-04-09T06:43:34;7.50;99.90
48206;DHT22;33995;48.202;16.260;2023-04-09T06:46:02;7.50;99.90
48206;DHT22;33995;48.202;16.260;2023-04-09T06:48:29;7.60;99.90
48206;DHT22;33995;48.202;16.260;2023-04-09T06:50:56;7.60;99.90
48206;DHT22;33995;48.202;16.260;2023-04-09T06:53:23;7.70;99.90
48206;DHT22;33995;48.202;16.260;2023-04-09T06:55:51;7.70;99.90
48206;DHT22;33995;48.202;16.260;2023-04-09T06:58:18;7.80;99.90
48206;DHT22;33995;48.202;16.260;2023-04-09T07:00:46;7.80;99.90
48206;DHT22;33995;48.202;16.260;2023-04-09T07:03:13;7.80;99.90
48206;DHT22;33995;48.202;16.260;2023-04-09T07:05:41;8.00;99.90
48206;DHT22;33995;48.202;16.260;2023-04-09T07:08:08;8.20;99.90
48206;DHT22;33995;48.202;16.260;2023-04-09T07:10:35;8.10;99.90
48206;DHT22;33995;48.202;16.260;2023-04-09T07:13:02;8.30;99.90
48206;DHT22;33995;48.202;16.260;2023-04-09T07:15:29;8.50;99.90
48206;DHT22;33995;48.202;16.260;2023-04-09T07:17:56;8.60;99.90
48206;DHT22;33995;48.202;16.260;2023-04-09T07:20:24;8.30;99.90
48206;DHT22;33995;48.202;16.260;2023-04-09T07:22:51;8.50;99.90
48206;DHT22;33995;48.202;16.260;2023-04-09T07:25:18;8.70;99.90
48206;DHT22;33995;48.202;16.260;2023-04-09T07:27:45;8.50;99.90
48206;DHT22;33995;48.202;16.260;2023-04-09T07:30:13;8.80;99.90
48206;DHT22;33995;48.202;16.260;2023-04-09T07:32:40;8.90;99.90
48206;DHT22;33995;48.202;16.260;2023-04-09T07:35:07;8.80;99.90
48206;DHT22;33995;48.202;16.260;2023-04-09T07:37:37;9.00;99.90
48206;DHT22;33995;48.202;16.260;2023-04-09T07:40:05;9.20;99.90
48206;DHT22;33995;48.202;16.260;2023-04-09T07:42:32;9.00;99.90
48206;DHT22;33995;48.202;16.260;2023-04-09T07:44:59;9.30;99.90
48206;DHT22;33995;48.202;16.260;2023-04-09T07:47:26;9.40;99.90
48206;DHT22;33995;48.202;16.260;2023-04-09T07:49:54;9.30;99.90
48206;DHT22;33995;48.202;16.260;2023-04-09T07:52:21;9.30;99.90
48206;DHT22;33995;48.202;16.260;2023-04-09T07:54:48;9.40;99.90
48206;DHT22;33995;48.202;16.260;2023-04-09T07:57:15;9.50;99.90
48206;DHT22;33995;48.202;16.260;2023-04-09T07:59:42;9.40;99.90
48206;DHT22;33995;48.202;16.260;2023-04-09T08:02:09;9.50;99.90
48206;DHT22;33995;48.202;16.260;2023-04-09T08:04:40;9.40;99.90
48206;DHT22;33995;48.202;16.260;2023-04-09T08:07:08;9.40;99.90
48206;DHT22;33995;48.202;16.260;2023-04-09T08:09:35;9.40;99.90
48206;DHT22;33995;48.202;16.260;2023-04-09T08:12:02;9.40;99.90
48206;DHT22;33995;48.202;16.260;2023-04-09T08:14:29;9.40;99.90
48206;DHT22;33995;48.202;16.260;2023-04-09T08:16:56;9.30;99.90
48206;DHT22;33995;48.202;16.260;2023-04-09T08:19:23;9.50;99.90
48206;DHT22;33995;48.202;16.260;2023-04-09T08:21:51;9.50;99.90
48206;DHT22;33995;48.202;16.260;2023-04-09T08:24:18;9.20;99.90
48206;DHT22;33995;48.202;16.260;2023-04-09T08:26:45;9.10;99.90
48206;DHT22;33995;48.202;16.260;2023-04-09T08:29:13;9.20;99.90
48206;DHT22;33995;48.202;16.260;2023-04-09T08:31:40;9.30;99.90
48206;DHT22;33995;48.202;16.260;2023-04-09T08:34:07;9.50;99.90
48206;DHT22;33995;48.202;16.260;2023-04-09T08:36:34;9.50;99.90
48206;DHT22;33995;48.202;16.260;2023-04-09T08:39:02;9.60;99.90
48206;DHT22;33995;48.202;16.260;2023-04-09T08:41:29;9.70;99.90
48206;DHT22;33995;48.202;16.260;2023-04-09T08:43:57;9.70;99.90
48206;DHT22;33995;48.202;16.260;2023-04-09T08:46:26;9.80;99.90
48206;DHT22;33995;48.202;16.260;2023-04-09T08:48:54;9.90;99.90
48206;DHT22;33995;48.202;16.260;2023-04-09T08:51:22;9.90;99.90
48206;DHT22;33995;48.202;16.260;2023-04-09T08:53:59;10.00;99.90
48206;DHT22;33995;48.202;16.260;2023-04-09T08:56:30;10.30;99.90
48206;DHT22;33995;48.202;16.260;2023-04-09T08:58:57;10.50;99.90
48206;DHT22;33995;48.202;16.260;2023-04-09T09:01:29;10.60;99.90
48206;DHT22;33995;48.202;16.260;2023-04-09T09:04:01;10.70;99.90
48206;DHT22;33995;48.202;16.260;2023-04-09T09:06:40;10.80;99.90
48206;DHT22;33995;48.202;16.260;2023-04-09T09:09:09;10.80;99.90
48206;DHT22;33995;48.202;16.260;2023-04-09T09:11:44;10.90;99.90
48206;DHT22;33995;48.202;16.260;2023-04-09T09:14:16;10.70;99.90
48206;DHT22;33995;48.202;16.260;2023-04-09T09:22:03;10.10;99.90
48206;DHT22;33995;48.202;16.260;2023-04-09T09:24:31;10.00;99.90
48206;DHT22;33995;48.202;16.260;2023-04-09T09:27:00;10.10;99.90
48206;DHT22;33995;48.202;16.260;2023-04-09T09:29:28;10.00;99.90
48206;DHT22;33995;48.202;16.260;2023-04-09T09:31:55;10.00;99.90
48206;DHT22;33995;48.202;16.260;2023-04-09T09:34:23;10.00;99.90
48206;DHT22;33995;48.202;16.260;2023-04-09T09:36:51;9.90;99.90
48206;DHT22;33995;48.202;16.260;2023-04-09T09:39:19;10.00;99.90
48206;DHT22;33995;48.202;16.260;2023-04-09T09:41:47;10.10;99.90
48206;DHT22;33995;48.202;16.260;2023-04-09T09:44:32;10.20;99.90
48206;DHT22;33995;48.202;16.260;2023-04-09T09:47:00;10.40;99.90
48206;DHT22;33995;48.202;16.260;2023-04-09T09:49:29;10.50;99.90
48206;DHT22;33995;48.202;16.260;2023-04-09T09:51:59;10.70;99.90
48206;DHT22;33995;48.202;16.260;2023-04-09T09:54:37;10.80;99.90
48206;DHT22;33995;48.202;16.260;2023-04-09T09:57:08;10.40;99.90
48206;DHT22;33995;48.202;16.260;2023-04-09T09:59:42;10.60;99.90
48206;DHT22;33995;48.202;16.260;2023-04-09T10:02:17;10.60;99.90
48206;DHT22;33995;48.202;16.260;2023-04-09T10:04:47;10.60;99.90
48206;DHT22;33995;48.202;16.260;2023-04-09T10:07:15;11.00;99.90
48206;DHT22;33995;48.202;16.260;2023-04-09T10:09:47;11.30;99.90
48206;DHT22;33995;48.202;16.260;2023-04-09T10:12:15;11.50;99.90
48206;DHT22;33995;48.202;16.260;2023-04-09T10:14:42;11.60;99.90
48206;DHT22;33995;48.202;16.260;2023-04-09T10:17:11;11.80;99.90
48206;DHT22;33995;48.202;16.260;2023-04-09T10:19:42;11.20;99.90
48206;DHT22;33995;48.202;16.260;2023-04-09T10:22:11;11.00;99.90
48206;DHT22;33995;48.202;16.260;2023-04-09T10:24:39;11.30;99.90
48206;DHT22;33995;48.202;16.260;2023-04-09T10:27:11;11.60;99.90
48206;DHT22;33995;48.202;16.260;2023-04-09T10:32:11;11.80;99.90
48206;DHT22;33995;48.202;16.260;2023-04-09T10:34:40;11.60;99.90
48206;DHT22;33995;48.202;16.260;2023-04-09T10:37:10;11.50;99.90
48206;DHT22;33995;48.202;16.260;2023-04-09T10:39:43;11.70;99.90
48206;DHT22;33995;48.202;16.260;2023-04-09T10:42:14;12.00;99.90
48206;DHT22;33995;48.202;16.260;2023-04-09T10:44:41;12.30;99.90
48206;DHT22;33995;48.202;16.260;2023-04-09T10:47:10;12.60;99.90
48206;DHT22;33995;48.202;16.260;2023-04-09T10:49:41;12.20;99.90
48206;DHT22;33995;48.202;16.260;2023-04-09T10:52:10;12.30;99.90
48206;DHT22;33995;48.202;16.260;2023-04-09T10:54:44;12.50;99.90
48206;DHT22;33995;48.202;16.260;2023-04-09T10:57:13;12.40;99.90
48206;DHT22;33995;48.202;16.260;2023-04-09T10:59:52;12.40;99.90
48206;DHT22;33995;48.202;16.260;2023-04-09T11:05:33;11.90;99.90
48206;DHT22;33995;48.202;16.260;2023-04-09T11:08:11;11.60;99.90
48206;DHT22;33995;48.202;16.260;2023-04-09T11:10:42;11.50;99.90
48206;DHT22;33995;48.202;16.260;2023-04-09T11:13:14;11.60;99.90
48206;DHT22;33995;48.202;16.260;2023-04-09T11:15:43;11.70;99.90
48206;DHT22;33995;48.202;16.260;2023-04-09T11:18:15;11.70;99.90
48206;DHT22;33995;48.202;16.260;2023-04-09T11:20:45;12.00;99.90
48206;DHT22;33995;48.202;16.260;2023-04-09T11:23:12;11.90;99.90
48206;DHT22;33995;48.202;16.260;2023-04-09T11:25:39;11.90;99.90
48206;DHT22;33995;48.202;16.260;2023-04-09T11:28:06;11.70;99.90
48206;DHT22;33995;48.202;16.260;2023-04-09T11:30:35;11.20;99.90
48206;DHT22;33995;48.202;16.260;2023-04-09T11:33:03;11.20;99.90
48206;DHT22;33995;48.202;16.260;2023-04-09T11:35:33;11.50;99.90
48206;DHT22;33995;48.202;16.260;2023-04-09T11:38:00;11.60;99.90
48206;DHT22;33995;48.202;16.260;2023-04-09T11:40:27;11.70;99.90
48206;DHT22;33995;48.202;16.260;2023-04-09T11:42:55;11.80;99.90
48206;DHT22;33995;48.202;16.260;2023-04-09T11:45:28;11.90;99.90
48206;DHT22;33995;48.202;16.260;2023-04-09T11:47:56;11.80;99.90
48206;DHT22;33995;48.202;16.260;2023-04-09T11:50:23;11.70;99.90
48206;DHT22;33995;48.202;16.260;2023-04-09T11:52:50;11.60;99.90
48206;DHT22;33995;48.202;16.260;2023-04-09T11:55:28;11.90;99.90
48206;DHT22;33995;48.202;16.260;2023-04-09T11:57:59;11.80;99.90
48206;DHT22;33995;48.202;16.260;2023-04-09T12:00:27;11.90;99.90
48206;DHT22;33995;48.202;16.260;2023-04-09T12:03:03;12.10;99.90
48206;DHT22;33995;48.202;16.260;2023-04-09T12:05:34;12.30;99.90
48206;DHT22;33995;48.202;16.260;2023-04-09T12:08:05;12.30;99.90
48206;DHT22;33995;48.202;16.260;2023-04-09T12:10:35;12.40;99.90
48206;DHT22;33995;48.202;16.260;2023-04-09T12:13:05;12.20;99.90
48206;DHT22;33995;48.202;16.260;2023-04-09T12:15:34;12.10;99.90
48206;DHT22;33995;48.202;16.260;2023-04-09T12:18:02;11.90;99.90
48206;DHT22;33995;48.202;16.260;2023-04-09T12:20:35;11.60;99.90
48206;DHT22;33995;48.202;16.260;2023-04-09T12:23:03;11.70;99.90
48206;DHT22;33995;48.202;16.260;2023-04-09T12:25:49;11.70;99.90
48206;DHT22;33995;48.202;16.260;2023-04-09T12:28:16;11.40;99.90
48206;DHT22;33995;48.202;16.260;2023-04-09T12:30:44;11.40;99.90
48206;DHT22;33995;48.202;16.260;2023-04-09T12:33:11;11.50;99.90
48206;DHT22;33995;48.202;16.260;2023-04-09T12:35:38;11.50;99.90
48206;DHT22;33995;48.202;16.260;2023-04-09T12:38:06;11.50;99.90
48206;DHT22;33995;48.202;16.260;2023-04-09T12:40:36;11.60;99.90
48206;DHT22;33995;48.202;16.260;2023-04-09T12:43:03;11.70;99.90
48206;DHT22;33995;48.202;16.260;2023-04-09T12:45:31;11.70;99.90
48206;DHT22;33995;48.202;16.260;2023-04-09T12:47:58;11.70;99.90
48206;DHT22;33995;48.202;16.260;2023-04-09T12:50:25;11.80;99.90
48206;DHT22;33995;48.202;16.260;2023-04-09T12:52:52;11.70;99.90
48206;DHT22;33995;48.202;16.260;2023-04-09T12:55:19;11.80;99.90
48206;DHT22;33995;48.202;16.260;2023-04-09T12:57:49;11.80;99.90
48206;DHT22;33995;48.202;16.260;2023-04-09T13:00:16;11.80;99.90
48206;DHT22;33995;48.202;16.260;2023-04-09T13:02:43;11.70;99.90
48206;DHT22;33995;48.202;16.260;2023-04-09T13:05:10;11.90;99.90
48206;DHT22;33995;48.202;16.260;2023-04-09T13:07:37;11.80;99.90
48206;DHT22;33995;48.202;16.260;2023-04-09T13:10:08;11.80;99.90
48206;DHT22;33995;48.202;16.260;2023-04-09T13:12:35;11.70;99.90
48206;DHT22;33995;48.202;16.260;2023-04-09T13:15:03;11.50;99.90
48206;DHT22;33995;48.202;16.260;2023-04-09T13:17:30;11.50;99.90
48206;DHT22;33995;48.202;16.260;2023-04-09T13:19:57;11.50;99.90
48206;DHT22;33995;48.202;16.260;2023-04-09T13:22:24;11.50;99.90
48206;DHT22;33995;48.202;16.260;2023-04-09T13:24:51;11.40;99.90
48206;DHT22;33995;48.202;16.260;2023-04-09T13:27:18;11.50;99.90
48206;DHT22;33995;48.202;16.260;2023-04-09T13:29:45;11.40;99.90
48206;DHT22;33995;48.202;16.260;2023-04-09T13:32:12;11.40;99.90
48206;DHT22;33995;48.202;16.260;2023-04-09T13:34:39;11.50;99.90
48206;DHT22;33995;48.202;16.260;2023-04-09T13:37:06;11.60;99.90
48206;DHT22;33995;48.202;16.260;2023-04-09T13:39:33;11.60;99.90
48206;DHT22;33995;48.202;16.260;2023-04-09T13:42:00;11.50;99.90
48206;DHT22;33995;48.202;16.260;2023-04-09T13:44:35;11.50;99.90
48206;DHT22;33995;48.202;16.260;2023-04-09T13:47:02;11.40;99.90
48206;DHT22;33995;48.202;16.260;2023-04-09T13:49:29;11.50;99.90
48206;DHT22;33995;48.202;16.260;2023-04-09T13:51:56;11.60;99.90
48206;DHT22;33995;48.202;16.260;2023-04-09T13:54:24;11.40;99.90
48206;DHT22;33995;48.202;16.260;2023-04-09T13:56:51;11.60;99.90
48206;DHT22;33995;48.202;16.260;2023-04-09T13:59:18;11.60;99.90
48206;DHT22;33995;48.202;16.260;2023-04-09T14:01:45;11.70;99.90
48206;DHT22;33995;48.202;16.260;2023-04-09T14:04:12;11.60;99.90
48206;DHT22;33995;48.202;16.260;2023-04-09T14:06:39;11.70;99.90
48206;DHT22;33995;48.202;16.260;2023-04-09T14:09:08;11.70;99.90
48206;DHT22;33995;48.202;16.260;2023-04-09T14:11:54;11.60;99.90
48206;DHT22;33995;48.202;16.260;2023-04-09T14:14:40;11.60;99.90
48206;DHT22;33995;48.202;16.260;2023-04-09T14:17:28;11.70;99.90
48206;DHT22;33995;48.202;16.260;2023-04-09T14:20:15;11.60;99.90
48206;DHT22;33995;48.202;16.260;2023-04-09T14:23:04;11.50;99.90
48206;DHT22;33995;48.202;16.260;2023-04-09T14:25:52;11.80;99.90
48206;DHT22;33995;48.202;16.260;2023-04-09T14:28:39;11.80;99.90
48206;DHT22;33995;48.202;16.260;2023-04-09T14:31:06;11.80;99.90
48206;DHT22;33995;48.202;16.260;2023-04-09T14:33:33;11.90;99.90
48206;DHT22;33995;48.202;16.260;2023-04-09T14:36:00;11.90;99.90
48206;DHT22;33995;48.202;16.260;2023-04-09T14:38:27;12.00;99.90
48206;DHT22;33995;48.202;16.260;2023-04-09T14:40:54;12.00;99.90
48206;DHT22;33995;48.202;16.260;2023-04-09T14:43:21;12.10;99.90
48206;DHT22;33995;48.202;16.260;2023-04-09T14:45:48;12.20;99.90
48206;DHT22;33995;48.202;16.260;2023-04-09T14:48:15;12.30;99.90
48206;DHT22;33995;48.202;16.260;2023-04-09T14:50:42;12.20;99.90
48206;DHT22;33995;48.202;16.260;2023-04-09T14:53:09;12.20;99.90
48206;DHT22;33995;48.202;16.260;2023-04-09T14:55:37;12.20;99.90
48206;DHT22;33995;48.202;16.260;2023-04-09T14:58:04;12.10;99.90
48206;DHT22;33995;48.202;16.260;2023-04-09T15:00:33;12.10;99.90
48206;DHT22;33995;48.202;16.260;2023-04-09T15:03:00;12.10;99.90
48206;DHT22;33995;48.202;16.260;2023-04-09T15:05:28;11.90;99.90
48206;DHT22;33995;48.202;16.260;2023-04-09T15:07:56;11.90;99.90
48206;DHT22;33995;48.202;16.260;2023-04-09T15:10:23;12.00;99.90
48206;DHT22;33995;48.202;16.260;2023-04-09T15:12:50;11.70;99.90
48206;DHT22;33995;48.202;16.260;2023-04-09T15:15:17;11.40;99.90
48206;DHT22;33995;48.202;16.260;2023-04-09T15:17:44;11.10;99.90
48206;DHT22;33995;48.202;16.260;2023-04-09T15:20:11;10.80;99.90
48206;DHT22;33995;48.202;16.260;2023-04-09T15:22:39;10.80;99.90
48206;DHT22;33995;48.202;16.260;2023-04-09T15:25:06;10.60;99.90
48206;DHT22;33995;48.202;16.260;2023-04-09T15:27:34;10.70;99.90
48206;DHT22;33995;48.202;16.260;2023-04-09T15:30:01;10.70;99.90
48206;DHT22;33995;48.202;16.260;2023-04-09T15:32:28;10.70;99.90
48206;DHT22;33995;48.202;16.260;2023-04-09T15:34:56;10.80;99.90
48206;DHT22;33995;48.202;16.260;2023-04-09T15:37:23;10.80;99.90
48206;DHT22;33995;48.202;16.260;2023-04-09T15:39:50;10.90;99.90
48206;DHT22;33995;48.202;16.260;2023-04-09T15:42:17;10.90;99.90
48206;DHT22;33995;48.202;16.260;2023-04-09T15:44:49;10.70;99.90
48206;DHT22;33995;48.202;16.260;2023-04-09T15:47:16;10.40;99.90
48206;DHT22;33995;48.202;16.260;2023-04-09T15:49:43;10.40;99.90
48206;DHT22;33995;48.202;16.260;2023-04-09T15:52:10;10.60;99.90
48206;DHT22;33995;48.202;16.260;2023-04-09T15:54:37;10.60;99.90